createdAt,value
2022-08-31T00:01:40.349Z,13.52
2022-08-31T00:04:10.791Z,13.75
2022-08-31T00:06:39.530Z,13.10
2022-08-31T00:09:09.005Z,13.32
2022-08-31T00:11:38.473Z,12.82
2022-08-31T00:14:13.367Z,13.32
2022-08-31T00:16:43.845Z,13.50
2022-08-31T00:19:13.025Z,13.13
2022-08-31T00:21:41.417Z,13.23
2022-08-31T00:24:14.511Z,13.48
2022-08-31T00:26:44.526Z,13.60
2022-08-31T00:29:15.138Z,14.10
2022-08-31T00:31:43.606Z,11.88
2022-08-31T00:34:11.791Z,13.45
2022-08-31T00:36:39.975Z,14.02
2022-08-31T00:39:08.864Z,13.65
2022-08-31T00:41:39.618Z,13.45
2022-08-31T00:44:12.087Z,14.48
2022-08-31T00:46:43.509Z,13.75
2022-08-31T00:49:14.743Z,14.27
2022-08-31T00:51:45.709Z,14.35
2022-08-31T00:54:16.072Z,13.00
2022-08-31T00:56:45.212Z,13.45
2022-08-31T00:59:17.741Z,13.10
2022-08-31T01:01:45.996Z,13.73
2022-08-31T01:04:14.358Z,13.73
2022-08-31T01:06:44.913Z,13.32
2022-08-31T01:09:15.205Z,13.77
2022-08-31T01:11:44.276Z,13.68
2022-08-31T01:14:12.790Z,13.88
2022-08-31T01:16:46.929Z,13.60
2022-08-31T01:19:23.235Z,13.52
2022-08-31T01:21:59.580Z,12.50
2022-08-31T01:24:32.174Z,12.65
2022-08-31T01:27:04.814Z,13.45
2022-08-31T01:29:33.649Z,13.38
2022-08-31T01:32:02.013Z,13.07
2022-08-31T01:34:30.360Z,12.63
2022-08-31T01:36:58.968Z,13.23
2022-08-31T01:39:29.049Z,14.18
2022-08-31T01:41:57.155Z,12.25
2022-08-31T01:44:27.690Z,13.07
2022-08-31T01:46:56.312Z,12.32
2022-08-31T01:49:25.644Z,13.02
2022-08-31T01:51:55.300Z,13.35
2022-08-31T01:54:25.231Z,12.98
2022-08-31T01:56:56.233Z,12.98
2022-08-31T01:59:24.885Z,13.00
2022-08-31T02:01:56.282Z,12.85
2022-08-31T02:04:27.827Z,14.07
2022-08-31T02:06:58.166Z,13.57
2022-08-31T02:09:26.548Z,13.13
2022-08-31T02:11:56.501Z,13.45
2022-08-31T02:14:24.952Z,13.35
2022-08-31T02:16:53.307Z,14.02
2022-08-31T02:19:21.813Z,12.75
2022-08-31T02:21:49.948Z,13.77
2022-08-31T02:24:18.157Z,13.65
2022-08-31T02:26:49.368Z,13.48
2022-08-31T02:29:21.492Z,12.55
2022-08-31T02:31:49.766Z,12.82
2022-08-31T02:34:18.452Z,12.27
2022-08-31T02:36:47.271Z,13.05
2022-08-31T02:39:16.641Z,12.88
2022-08-31T02:41:45.158Z,13.93
2022-08-31T02:44:13.540Z,11.30
2022-08-31T02:46:43.323Z,13.23
2022-08-31T02:49:11.601Z,14.07
2022-08-31T02:51:41.792Z,12.80
2022-08-31T02:54:10.444Z,12.10
2022-08-31T02:56:38.778Z,12.90
2022-08-31T02:59:09.161Z,13.00
2022-08-31T03:01:39.039Z,12.60
2022-08-31T03:04:08.921Z,13.15
2022-08-31T03:06:37.125Z,13.15
2022-08-31T03:09:05.725Z,13.68
2022-08-31T03:11:34.161Z,12.63
2022-08-31T03:14:02.366Z,12.10
2022-08-31T03:16:30.638Z,13.02
2022-08-31T03:18:58.920Z,13.52
2022-08-31T03:21:28.600Z,12.60
2022-08-31T03:23:57.032Z,12.95
2022-08-31T03:26:25.245Z,12.45
2022-08-31T03:28:54.246Z,13.57
2022-08-31T03:31:22.573Z,12.40
2022-08-31T03:33:50.915Z,12.30
2022-08-31T03:36:19.197Z,12.68
2022-08-31T03:38:49.661Z,12.55
2022-08-31T03:41:23.439Z,12.55
2022-08-31T03:43:52.361Z,12.90
2022-08-31T03:46:20.736Z,12.13
2022-08-31T03:48:48.908Z,12.93
2022-08-31T03:51:17.942Z,11.65
2022-08-31T03:53:46.288Z,12.80
2022-08-31T03:56:15.861Z,12.90
2022-08-31T03:58:44.043Z,13.32
2022-08-31T04:01:13.188Z,12.55
2022-08-31T04:03:42.013Z,13.75
2022-08-31T04:06:11.373Z,14.07
2022-08-31T04:08:40.436Z,13.20
2022-08-31T04:11:11.850Z,17.48
2022-08-31T04:13:42.061Z,13.18
2022-08-31T04:16:13.196Z,13.10
2022-08-31T04:18:42.194Z,14.15
2022-08-31T04:21:13.814Z,15.10
2022-08-31T04:23:42.035Z,13.98
2022-08-31T04:26:17.907Z,13.30
2022-08-31T04:28:47.589Z,13.85
2022-08-31T04:31:16.143Z,13.90
2022-08-31T04:33:45.441Z,14.07
2022-08-31T04:36:16.071Z,13.70
2022-08-31T04:38:45.574Z,14.05
2022-08-31T04:41:16.392Z,14.13
2022-08-31T04:43:49.335Z,14.25
2022-08-31T04:46:19.019Z,14.32
2022-08-31T04:48:47.202Z,14.82
2022-08-31T04:51:17.713Z,14.07
2022-08-31T04:53:46.567Z,15.27
2022-08-31T04:56:18.311Z,15.77
2022-08-31T04:58:49.710Z,15.45
2022-08-31T05:01:21.313Z,14.18
2022-08-31T05:03:51.396Z,15.10
2022-08-31T05:06:21.199Z,14.00
2022-08-31T05:08:49.528Z,14.85
2022-08-31T05:11:24.736Z,14.60
2022-08-31T05:13:55.097Z,16.48
2022-08-31T05:16:23.433Z,14.30
2022-08-31T05:18:52.915Z,14.00
2022-08-31T05:21:28.394Z,13.18
2022-08-31T05:23:57.329Z,13.38
2022-08-31T05:26:28.274Z,12.68
2022-08-31T05:28:58.904Z,12.80
2022-08-31T05:31:30.125Z,14.73
2022-08-31T05:33:59.154Z,13.27
2022-08-31T05:36:27.597Z,13.57
2022-08-31T05:39:00.785Z,11.95
2022-08-31T05:41:31.641Z,12.40
2022-08-31T05:44:03.570Z,12.07
2022-08-31T05:46:32.057Z,12.10
2022-08-31T05:49:02.089Z,10.52
2022-08-31T05:51:32.101Z,10.05
2022-08-31T05:54:04.399Z,11.02
2022-08-31T05:56:33.410Z,10.30
2022-08-31T05:59:03.253Z,10.68
2022-08-31T06:01:35.479Z,9.07
2022-08-31T06:04:08.788Z,9.40
2022-08-31T06:06:37.409Z,9.82
2022-08-31T06:09:07.090Z,10.13
2022-08-31T06:11:38.411Z,9.57
2022-08-31T06:14:08.059Z,10.18
2022-08-31T06:16:37.007Z,10.85
2022-08-31T06:19:08.246Z,9.88
2022-08-31T06:21:49.148Z,9.25
2022-08-31T06:24:18.737Z,9.73
2022-08-31T06:26:59.662Z,9.32
2022-08-31T06:29:31.593Z,9.73
2022-08-31T06:32:01.012Z,9.77
2022-08-31T06:34:30.198Z,8.57
2022-08-31T06:36:58.444Z,7.95
2022-08-31T06:39:26.637Z,8.88
2022-08-31T06:41:56.631Z,8.43
2022-08-31T06:44:25.234Z,8.13
2022-08-31T06:46:54.844Z,8.18
2022-08-31T06:49:23.985Z,8.07
2022-08-31T06:51:52.503Z,8.90
2022-08-31T06:54:29.429Z,7.65
2022-08-31T06:57:00.063Z,8.32
2022-08-31T06:59:29.832Z,7.75
2022-08-31T07:02:00.828Z,8.27
2022-08-31T07:04:29.296Z,8.05
2022-08-31T07:06:57.412Z,8.38
2022-08-31T07:09:25.493Z,8.35
2022-08-31T07:11:53.854Z,8.93
2022-08-31T07:14:24.378Z,8.68
2022-08-31T07:16:54.944Z,7.88
2022-08-31T07:19:25.008Z,8.98
2022-08-31T07:21:54.585Z,8.68
2022-08-31T07:24:25.891Z,8.45
2022-08-31T07:26:58.207Z,8.23
2022-08-31T07:29:30.505Z,8.68
2022-08-31T07:31:59.871Z,8.77
2022-08-31T07:34:34.637Z,8.13
2022-08-31T07:37:21.287Z,8.43
2022-08-31T07:40:08.434Z,8.57
2022-08-31T07:42:39.375Z,8.27
2022-08-31T07:45:12.580Z,8.20
2022-08-31T07:47:48.254Z,8.43
2022-08-31T07:50:21.064Z,8.52
2022-08-31T07:52:54.376Z,7.90
2022-08-31T07:55:24.876Z,8.15
2022-08-31T07:57:55.291Z,8.30
2022-08-31T08:00:26.619Z,8.27
2022-08-31T08:02:55.454Z,8.20
2022-08-31T08:05:28.955Z,8.88
2022-08-31T08:08:08.419Z,8.60
2022-08-31T08:10:42.268Z,8.35
2022-08-31T08:13:12.756Z,8.75
2022-08-31T08:15:41.008Z,7.90
2022-08-31T08:18:10.975Z,8.20
2022-08-31T08:20:41.636Z,8.23
2022-08-31T08:23:15.026Z,8.05
2022-08-31T08:25:45.128Z,8.82
2022-08-31T08:31:06.939Z,8.35
2022-08-31T08:33:36.681Z,8.00
2022-08-31T08:36:08.826Z,7.90
2022-08-31T08:38:39.651Z,8.48
2022-08-31T08:41:13.436Z,8.27
2022-08-31T08:43:44.543Z,8.15
2022-08-31T08:46:34.291Z,8.07
2022-08-31T08:49:12.695Z,8.00
2022-08-31T08:51:44.141Z,7.43
2022-08-31T08:54:15.963Z,7.68
2022-08-31T08:56:49.572Z,8.13
2022-08-31T08:59:19.907Z,7.65
2022-08-31T09:01:53.324Z,7.55
2022-08-31T09:05:04.961Z,8.13
2022-08-31T09:07:58.167Z,7.50
2022-08-31T09:10:35.009Z,7.50
2022-08-31T09:13:18.418Z,6.75
2022-08-31T09:16:04.726Z,7.60
2022-08-31T09:18:46.893Z,8.93
2022-08-31T09:21:22.419Z,7.63
2022-08-31T09:23:59.666Z,7.50
2022-08-31T09:26:27.980Z,8.18
2022-08-31T09:28:57.042Z,9.05
2022-08-31T09:31:37.804Z,9.63
2022-08-31T09:34:12.894Z,12.65
2022-08-31T09:36:42.121Z,8.85
2022-08-31T09:39:21.923Z,7.72
2022-08-31T09:41:52.319Z,8.40
2022-08-31T09:44:34.016Z,8.35
2022-08-31T09:47:05.704Z,7.93
2022-08-31T09:49:38.008Z,8.30
2022-08-31T09:52:20.496Z,9.57
2022-08-31T09:55:17.134Z,8.88
2022-08-31T09:57:54.145Z,7.05
2022-08-31T10:00:34.556Z,7.80
2022-08-31T10:03:14.337Z,7.72
2022-08-31T10:05:44.665Z,7.90
2022-08-31T10:08:39.689Z,7.90
2022-08-31T10:11:13.555Z,8.70
2022-08-31T10:13:46.010Z,8.93
2022-08-31T10:16:26.209Z,8.40
2022-08-31T10:19:01.513Z,8.93
2022-08-31T10:21:40.848Z,7.30
2022-08-31T10:24:21.100Z,7.50
2022-08-31T10:26:57.180Z,7.40
2022-08-31T10:29:36.230Z,7.90
2022-08-31T10:32:17.802Z,7.65
2022-08-31T10:35:07.925Z,7.80
2022-08-31T10:37:55.147Z,7.65
2022-08-31T10:40:32.060Z,7.47
2022-08-31T10:43:14.548Z,7.53
2022-08-31T10:45:45.712Z,7.85
2022-08-31T10:48:14.230Z,8.63
2022-08-31T10:50:49.332Z,9.00
2022-08-31T10:53:35.845Z,7.90
2022-08-31T10:56:15.160Z,7.85
2022-08-31T10:59:02.756Z,7.50
2022-08-31T11:01:45.698Z,6.72
2022-08-31T11:04:47.229Z,7.40
2022-08-31T11:07:39.147Z,6.75
2022-08-31T11:10:20.105Z,7.88
2022-08-31T11:12:57.710Z,7.65
2022-08-31T11:15:59.033Z,6.72
2022-08-31T11:19:04.079Z,7.35
2022-08-31T11:22:00.245Z,7.40
2022-08-31T11:24:56.242Z,7.05
2022-08-31T11:27:27.966Z,6.43
2022-08-31T11:30:00.860Z,6.55
2022-08-31T11:32:38.420Z,6.80
2022-08-31T11:35:10.622Z,6.57
2022-08-31T11:37:59.097Z,6.70
2022-08-31T11:41:11.201Z,6.40
2022-08-31T11:43:52.517Z,6.38
2022-08-31T11:46:43.589Z,6.70
2022-08-31T11:49:54.333Z,6.07
2022-08-31T11:52:38.651Z,6.13
2022-08-31T11:55:27.229Z,5.38
2022-08-31T11:58:20.840Z,6.35
2022-08-31T12:00:58.332Z,5.13
2022-08-31T12:03:45.932Z,5.68
2022-08-31T12:06:47.882Z,5.40
2022-08-31T12:09:39.533Z,5.65
2022-08-31T12:12:19.716Z,5.57
2022-08-31T12:14:52.895Z,5.93
2022-08-31T12:17:26.181Z,6.20
2022-08-31T12:20:06.870Z,5.75
2022-08-31T12:23:24.410Z,6.38
2022-08-31T12:26:13.522Z,6.70
2022-08-31T12:29:04.715Z,6.38
2022-08-31T12:31:35.958Z,5.97
2022-08-31T12:34:13.398Z,5.78
2022-08-31T12:36:41.937Z,5.65
2022-08-31T12:39:12.644Z,6.35
2022-08-31T12:41:48.430Z,6.20
2022-08-31T12:44:23.020Z,5.70
2022-08-31T12:47:05.885Z,5.53
2022-08-31T12:49:59.146Z,6.70
2022-08-31T12:52:46.138Z,6.05
2022-08-31T12:55:25.641Z,6.40
2022-08-31T12:58:16.579Z,6.80
2022-08-31T13:00:45.019Z,6.03
2022-08-31T13:03:21.073Z,5.43
2022-08-31T13:06:05.810Z,5.63
2022-08-31T13:08:38.728Z,5.93
2022-08-31T13:11:23.009Z,5.13
2022-08-31T13:13:52.879Z,5.82
2022-08-31T13:16:21.622Z,10.48
2022-08-31T13:18:58.941Z,10.15
2022-08-31T13:21:28.448Z,7.75
2022-08-31T13:24:07.470Z,6.88
2022-08-31T13:26:38.676Z,7.57
2022-08-31T13:29:15.879Z,7.78
2022-08-31T13:31:50.240Z,7.57
2022-08-31T13:34:19.250Z,7.00
2022-08-31T13:36:53.678Z,6.20
2022-08-31T13:39:28.490Z,6.05
2022-08-31T13:41:59.023Z,6.88
2022-08-31T13:44:33.993Z,6.90
2022-08-31T13:47:06.158Z,7.38
2022-08-31T13:49:37.276Z,6.65
2022-08-31T13:52:09.014Z,6.60
2022-08-31T13:54:37.898Z,7.05
2022-08-31T13:57:28.331Z,7.55
2022-08-31T14:00:27.819Z,10.40
2022-08-31T14:03:01.382Z,7.90
2022-08-31T14:05:32.235Z,8.65
2022-08-31T14:08:03.888Z,8.48
2022-08-31T14:10:38.316Z,9.45
2022-08-31T14:13:10.081Z,10.13
2022-08-31T14:15:45.898Z,9.75
2022-08-31T14:18:25.030Z,8.40
2022-08-31T14:21:21.880Z,8.85
2022-08-31T14:23:52.915Z,8.23
2022-08-31T14:26:28.314Z,9.13
2022-08-31T14:29:00.443Z,9.00
2022-08-31T14:31:34.913Z,8.35
2022-08-31T14:34:23.289Z,8.88
2022-08-31T14:36:55.952Z,9.55
2022-08-31T14:39:30.078Z,9.63
2022-08-31T14:42:01.167Z,9.23
2022-08-31T14:44:32.638Z,9.77
2022-08-31T14:47:02.796Z,10.43
2022-08-31T14:49:36.043Z,9.65
2022-08-31T14:52:06.566Z,10.60
2022-08-31T14:54:37.361Z,13.55
2022-08-31T14:57:12.406Z,12.32
2022-08-31T14:59:43.697Z,11.88
2022-08-31T15:02:16.488Z,12.57
2022-08-31T15:04:45.610Z,10.43
2022-08-31T15:07:15.015Z,9.93
2022-08-31T15:09:44.171Z,8.57
2022-08-31T15:12:14.764Z,7.80
2022-08-31T15:14:44.926Z,7.45
2022-08-31T15:17:19.870Z,7.18
2022-08-31T15:19:50.318Z,7.80
2022-08-31T15:22:19.297Z,7.78
2022-08-31T15:24:47.553Z,8.23
2022-08-31T15:27:16.903Z,6.65
2022-08-31T15:29:48.773Z,6.68
2022-08-31T15:32:18.758Z,7.45
2022-08-31T15:34:57.074Z,6.53
2022-08-31T15:37:27.425Z,7.07
2022-08-31T15:40:03.793Z,6.40
2022-08-31T15:42:39.936Z,6.22
2022-08-31T15:45:09.502Z,6.93
2022-08-31T15:48:04.110Z,6.07
2022-08-31T15:50:33.305Z,5.25
2022-08-31T15:53:09.499Z,6.40
2022-08-31T15:55:41.108Z,6.05
2022-08-31T15:58:10.792Z,7.60
2022-08-31T16:00:42.117Z,8.57
2022-08-31T16:03:12.608Z,7.28
2022-08-31T16:05:43.680Z,6.57
2022-08-31T16:08:13.359Z,7.78
2022-08-31T16:10:45.072Z,7.95
2022-08-31T16:13:15.835Z,8.45
2022-08-31T16:15:51.213Z,9.18
2022-08-31T16:18:22.516Z,9.20
2022-08-31T16:20:52.104Z,9.73
2022-08-31T16:23:21.212Z,8.52
2022-08-31T16:25:50.036Z,9.20
2022-08-31T16:28:20.523Z,8.85
2022-08-31T16:30:51.035Z,8.57
2022-08-31T16:33:21.555Z,8.63
2022-08-31T16:35:50.118Z,9.70
2022-08-31T16:38:18.441Z,7.82
2022-08-31T16:40:46.840Z,8.55
2022-08-31T16:43:15.015Z,9.50
2022-08-31T16:45:43.240Z,9.02
2022-08-31T16:48:30.138Z,9.45
2022-08-31T16:51:02.593Z,9.50
2022-08-31T16:53:31.858Z,9.88
2022-08-31T16:56:00.402Z,10.60
2022-08-31T16:58:50.758Z,10.02
2022-08-31T17:01:22.075Z,11.10
2022-08-31T17:03:52.217Z,12.82
2022-08-31T17:06:21.750Z,11.25
2022-08-31T17:08:54.147Z,10.35
2022-08-31T17:11:24.819Z,10.00
2022-08-31T17:13:58.410Z,11.55
2022-08-31T17:16:29.026Z,12.55
2022-08-31T17:18:58.554Z,12.77
2022-08-31T17:21:32.776Z,13.75
2022-08-31T17:24:03.240Z,8.93
2022-08-31T17:26:35.594Z,9.25
2022-08-31T17:29:06.948Z,9.77
2022-08-31T17:31:38.489Z,10.13
2022-08-31T17:34:06.604Z,10.63
2022-08-31T17:36:37.712Z,10.27
2022-08-31T17:39:06.164Z,10.25
2022-08-31T17:41:34.242Z,9.57
2022-08-31T17:44:03.062Z,9.43
2022-08-31T17:46:31.978Z,11.02
2022-08-31T17:49:00.569Z,9.70
2022-08-31T17:51:32.203Z,9.68
2022-08-31T17:54:04.692Z,8.10
2022-08-31T17:56:45.814Z,7.68
2022-08-31T17:59:17.913Z,8.60
2022-08-31T18:01:47.937Z,8.60
2022-08-31T18:04:17.082Z,9.02
2022-08-31T18:06:46.615Z,9.60
2022-08-31T18:09:18.511Z,8.38
2022-08-31T18:11:47.840Z,7.78
2022-08-31T18:14:17.344Z,7.82
2022-08-31T18:16:47.763Z,8.05
2022-08-31T18:19:27.297Z,8.93
2022-08-31T18:21:56.340Z,8.13
2022-08-31T18:24:27.181Z,7.53
2022-08-31T18:26:59.021Z,7.30
2022-08-31T18:29:28.472Z,8.30
2022-08-31T18:32:00.719Z,7.60
2022-08-31T18:34:28.938Z,7.40
2022-08-31T18:36:58.617Z,6.95
2022-08-31T18:39:51.212Z,7.55
2022-08-31T18:42:37.647Z,7.28
2022-08-31T18:45:22.302Z,6.40
2022-08-31T18:50:45.109Z,7.07
2022-08-31T18:53:15.309Z,6.07
2022-08-31T18:55:46.517Z,6.28
2022-08-31T18:58:14.907Z,6.32
2022-08-31T19:00:43.451Z,6.75
2022-08-31T19:03:13.074Z,6.28
2022-08-31T19:05:42.054Z,6.45
2022-08-31T19:08:10.365Z,7.07
2022-08-31T19:10:41.896Z,6.95
2022-08-31T19:13:12.291Z,6.90
2022-08-31T19:15:41.001Z,6.68
2022-08-31T19:18:09.423Z,7.13
2022-08-31T19:20:37.907Z,7.18
2022-08-31T19:23:06.223Z,7.07
2022-08-31T19:25:35.456Z,6.65
2022-08-31T19:28:07.990Z,7.25
2022-08-31T19:30:38.783Z,6.63
2022-08-31T19:33:08.568Z,6.28
2022-08-31T19:35:39.169Z,6.10
2022-08-31T19:38:07.419Z,6.10
2022-08-31T19:40:39.485Z,5.95
2022-08-31T19:46:09.592Z,6.03
2022-08-31T19:48:46.210Z,6.20
2022-08-31T19:51:16.699Z,5.55
2022-08-31T19:53:45.693Z,5.28
2022-08-31T19:56:17.363Z,6.60
2022-08-31T19:58:47.103Z,8.20
2022-08-31T20:01:18.248Z,6.80
2022-08-31T20:03:48.205Z,5.30
2022-08-31T20:06:19.375Z,5.75
2022-08-31T20:08:50.145Z,5.60
2022-08-31T20:11:22.003Z,5.25
2022-08-31T20:13:50.803Z,5.25
2022-08-31T20:16:22.241Z,5.18
2022-08-31T20:19:00.054Z,5.78
2022-08-31T20:21:31.264Z,5.88
2022-08-31T20:24:04.217Z,5.50
2022-08-31T20:26:38.253Z,5.68
2022-08-31T20:29:16.255Z,4.82
2022-08-31T20:31:48.625Z,5.60
2022-08-31T20:34:20.055Z,5.10
2022-08-31T20:36:50.211Z,5.00
2022-08-31T20:39:20.683Z,5.70
2022-08-31T20:41:51.416Z,5.65
2022-08-31T20:44:24.309Z,5.50
2022-08-31T20:47:13.209Z,5.68
2022-08-31T20:49:43.745Z,5.60
2022-08-31T20:52:14.305Z,5.82
2022-08-31T20:54:43.154Z,5.82
2022-08-31T20:57:13.748Z,5.68
2022-08-31T20:59:42.705Z,6.07
2022-08-31T21:02:12.768Z,6.35
2022-08-31T21:04:44.780Z,5.57
2022-08-31T21:07:14.755Z,5.70
2022-08-31T21:09:44.336Z,5.95
2022-08-31T21:12:17.794Z,6.20
2022-08-31T21:14:47.188Z,6.00
2022-08-31T21:17:17.457Z,6.05
2022-08-31T21:19:46.172Z,5.50
2022-08-31T21:22:17.564Z,5.63
2022-08-31T21:24:46.646Z,7.30
2022-08-31T21:27:17.549Z,6.90
2022-08-31T21:29:47.247Z,5.32
2022-08-31T21:32:18.611Z,6.05
2022-08-31T21:34:46.887Z,6.40
2022-08-31T21:37:15.006Z,6.55
2022-08-31T21:39:43.213Z,6.30
2022-08-31T21:42:11.348Z,5.82
2022-08-31T21:44:39.775Z,6.00
2022-08-31T21:47:10.015Z,6.60
2022-08-31T21:49:40.274Z,8.75
2022-08-31T21:52:08.455Z,9.15
2022-08-31T21:54:36.652Z,8.68
2022-08-31T21:57:05.581Z,10.40
2022-08-31T21:59:37.278Z,9.57
2022-08-31T22:02:09.408Z,10.48
2022-08-31T22:04:41.721Z,10.50
2022-08-31T22:07:10.265Z,10.75
2022-08-31T22:09:39.079Z,11.05
2022-08-31T22:12:09.815Z,10.60
2022-08-31T22:14:41.260Z,10.27
2022-08-31T22:17:10.925Z,10.63
2022-08-31T22:19:41.031Z,11.82
2022-08-31T22:22:12.614Z,11.73
2022-08-31T22:24:43.039Z,11.82
2022-08-31T22:27:12.692Z,12.23
2022-08-31T22:29:41.608Z,12.05
2022-08-31T22:32:12.189Z,12.73
2022-08-31T22:34:43.171Z,12.95
2022-08-31T22:37:13.898Z,12.32
2022-08-31T22:39:42.887Z,12.50
2022-08-31T22:42:12.078Z,11.90
2022-08-31T22:44:41.143Z,12.05
2022-08-31T22:47:09.527Z,11.95
2022-08-31T22:49:37.700Z,11.32
2022-08-31T22:52:07.371Z,11.50
2022-08-31T22:54:36.609Z,12.35
2022-08-31T22:57:05.199Z,12.25
2022-08-31T22:59:33.304Z,12.02
2022-08-31T23:02:04.101Z,14.15
2022-08-31T23:04:35.088Z,11.48
2022-08-31T23:07:04.762Z,11.90
2022-08-31T23:09:34.502Z,11.85
2022-08-31T23:12:05.197Z,12.20
2022-08-31T23:14:33.714Z,11.25
2022-08-31T23:17:04.083Z,12.02
2022-08-31T23:19:37.123Z,11.00
2022-08-31T23:22:10.134Z,12.18
2022-08-31T23:24:42.280Z,12.10
2022-08-31T23:27:12.219Z,12.52
2022-08-31T23:29:45.769Z,12.68
2022-08-31T23:32:18.155Z,12.63
2022-08-31T23:34:46.957Z,12.75
2022-08-31T23:37:15.532Z,12.90
2022-08-31T23:39:45.952Z,12.60
2022-08-31T23:42:16.595Z,13.68
2022-08-31T23:44:46.614Z,13.70
2022-08-31T23:47:18.116Z,13.75
2022-08-31T23:49:51.339Z,13.90
2022-08-31T23:52:21.587Z,13.52
2022-08-31T23:54:53.840Z,13.38
2022-08-31T23:57:32.947Z,12.68
